Accueil
METAR-TAF:

METAR-TAF

Aéroports :

Aéroport de Stuttgart

Stuttgart, Allemagne

latitude: 48-41N, longitude: 009-13E, altitude: 396 m

Observation

Le bulletin a été fait il y a 12 minutes, à 05:20 UTC
Vent 1 kt de direction variable
Température 12°C
Humidité 82%
Pression 1022 hPa
Visibilité 10 km ou plus
Quelques nuages à une hauteur de 4200 ft
Nuages fragmentés à une hauteur de 11000 ft

METAR: EDDS 240520Z VRB01KT 9999 FEW042 BKN110 12/09 Q1022 NOSIG

Heure: 07:32 (05:32 UTC)

Prévision

Le bulletin a été fait il y a 6 heures et 32 minutes, à 23:00 UTC
Prévision valable du 24 à 00 UTC au 24 à 24 UTC
Vent 3 kt de direction variable
Visibilité 10 km ou plus
pas de nuages en-dessous de 1500 mètres et pas de cumulonimbus.
Evoluant progressivement
du 24 à 08 UTC au 24 à 10 UTC
Vent 5 kt de nord

TAF: EDDS 232300Z 2400/2424 VRB03KT CAVOK BECMG 2408/2410 36005KT

Observations et prévisions météorologiques de plus de 4000 aéroports (messages METAR et TAF).

Les stations disponibles sont représentées par des disques jaunes et rouges sur la carte.

Passer la souris dessus pour voir le nom de la station.

Cliquer dessus pour voir les observations et prévisions météorologiques.

Pour changer de carte: cliquez sur les boutons verts avec une croix noire pour zoomer, sur le bouton vert avec un tiret pour effectuer un zoom arrière, ou sur les flèches vertes pour les cartes adjacentes.


METAR-TAF: